createdAt,value
2018-07-10T00:02:04.610Z,6.83
2018-07-10T00:04:53.810Z,7.23
2018-07-10T00:09:40.085Z,7.57
2018-07-10T00:12:09.356Z,7.43
2018-07-10T00:14:37.491Z,6.90
2018-07-10T00:17:05.706Z,7.63
2018-07-10T00:19:33.912Z,6.93
2018-07-10T00:22:02.122Z,8.37
2018-07-10T00:24:30.327Z,6.30
2018-07-10T00:26:58.583Z,7.13
2018-07-10T00:29:26.740Z,7.07
2018-07-10T00:31:54.945Z,6.63
2018-07-10T00:34:23.137Z,7.63
2018-07-10T00:36:51.341Z,7.37
2018-07-10T00:39:19.533Z,7.10
2018-07-10T00:41:48.908Z,6.53
2018-07-10T00:44:17.713Z,6.97
2018-07-10T00:46:45.905Z,5.97
2018-07-10T00:49:14.096Z,6.30
2018-07-10T00:51:42.298Z,6.80
2018-07-10T00:54:10.505Z,6.83
2018-07-10T00:56:38.753Z,6.30
2018-07-10T00:59:07.388Z,6.90
2018-07-10T01:01:36.074Z,6.80
2018-07-10T01:04:04.391Z,7.13
2018-07-10T01:06:33.444Z,7.10
2018-07-10T01:09:01.641Z,6.13
2018-07-10T01:11:29.838Z,6.57
2018-07-10T01:13:58.039Z,6.50
2018-07-10T01:16:35.260Z,6.67
2018-07-10T01:19:05.882Z,6.87
2018-07-10T01:21:34.085Z,6.57
2018-07-10T01:24:03.573Z,6.67
2018-07-10T01:26:35.561Z,6.07
2018-07-10T01:29:09.641Z,6.30
2018-07-10T01:31:39.844Z,6.57
2018-07-10T01:34:08.038Z,7.60
2018-07-10T01:36:36.573Z,6.53
2018-07-10T01:39:05.289Z,7.40
2018-07-10T01:41:33.556Z,6.40
2018-07-10T01:44:01.745Z,6.30
2018-07-10T01:46:29.946Z,6.97
2018-07-10T01:48:58.226Z,6.87
2018-07-10T01:51:26.424Z,6.50
2018-07-10T01:53:54.634Z,7.00
2018-07-10T01:56:22.858Z,6.77
2018-07-10T01:58:51.053Z,6.77
2018-07-10T02:01:19.250Z,6.47
2018-07-10T02:03:47.445Z,5.93
2018-07-10T02:06:15.641Z,7.07
2018-07-10T02:08:43.835Z,7.23
2018-07-10T02:11:12.025Z,6.20
2018-07-10T02:13:40.221Z,5.73
2018-07-10T02:16:08.437Z,6.27
2018-07-10T02:18:36.642Z,6.40
2018-07-10T02:21:07.745Z,6.23
2018-07-10T02:23:39.111Z,6.10
2018-07-10T02:26:10.347Z,5.70
2018-07-10T02:28:38.599Z,6.50
2018-07-10T02:31:06.995Z,6.43
2018-07-10T02:33:35.241Z,6.13
2018-07-10T02:36:04.057Z,6.80
2018-07-10T02:38:32.645Z,6.50
2018-07-10T02:41:00.849Z,6.23
2018-07-10T02:43:29.049Z,6.40
2018-07-10T02:45:57.662Z,6.00
2018-07-10T02:48:29.773Z,6.10
2018-07-10T02:50:59.045Z,6.27
2018-07-10T02:53:29.102Z,6.43
2018-07-10T02:55:57.289Z,5.67
2018-07-10T02:58:26.574Z,6.80
2018-07-10T03:00:54.759Z,6.20
2018-07-10T03:03:23.124Z,6.13
2018-07-10T03:05:51.353Z,5.87
2018-07-10T03:08:19.554Z,6.80
2018-07-10T03:10:47.768Z,6.37
2018-07-10T03:13:16.566Z,5.90
2018-07-10T03:15:44.761Z,6.50
2018-07-10T03:18:14.053Z,7.30
2018-07-10T03:20:42.349Z,7.27
2018-07-10T03:23:10.550Z,6.80
2018-07-10T03:25:38.753Z,7.00
2018-07-10T03:28:07.057Z,7.83
2018-07-10T03:30:35.316Z,6.73
2018-07-10T03:33:03.515Z,6.30
2018-07-10T03:35:31.726Z,5.90
2018-07-10T03:37:59.926Z,5.83
2018-07-10T03:40:29.212Z,5.57
2018-07-10T03:42:57.411Z,6.10
2018-07-10T03:45:26.273Z,6.17
2018-07-10T03:47:54.553Z,5.83
2018-07-10T03:50:22.753Z,5.77
2018-07-10T03:52:50.968Z,5.90
2018-07-10T03:55:19.188Z,5.60
2018-07-10T03:57:49.513Z,5.30
2018-07-10T04:00:17.460Z,5.47
2018-07-10T04:02:48.437Z,5.40
2018-07-10T04:05:18.226Z,5.53
2018-07-10T04:07:47.028Z,5.40
2018-07-10T04:10:16.970Z,5.37
2018-07-10T04:12:47.264Z,26.57
2018-07-10T04:15:15.549Z,7.37
2018-07-10T04:17:50.884Z,5.93
2018-07-10T04:20:19.075Z,5.60
2018-07-10T04:22:52.053Z,5.60
2018-07-10T04:25:24.213Z,5.53
2018-07-10T04:27:54.833Z,5.50
2018-07-10T04:30:28.853Z,5.20
2018-07-10T04:32:58.562Z,5.17
2018-07-10T04:35:28.090Z,5.57
2018-07-10T04:37:56.341Z,4.70
2018-07-10T04:40:25.749Z,5.33
2018-07-10T04:42:57.828Z,5.57
2018-07-10T04:45:31.200Z,4.80
2018-07-10T04:48:00.000Z,4.67
2018-07-10T04:50:32.705Z,5.43
2018-07-10T04:53:09.682Z,5.27
2018-07-10T04:55:40.342Z,5.20
2018-07-10T04:58:18.201Z,5.17
2018-07-10T05:00:49.684Z,5.30
2018-07-10T05:03:19.198Z,5.00
2018-07-10T05:05:47.770Z,4.83
2018-07-10T05:08:18.677Z,4.73
2018-07-10T05:10:47.361Z,5.37
2018-07-10T05:13:15.544Z,5.13
2018-07-10T05:15:44.217Z,5.33
2018-07-10T05:18:12.413Z,6.07
2018-07-10T05:20:43.769Z,6.20
2018-07-10T05:23:13.675Z,5.23
2018-07-10T05:25:43.998Z,5.13
2018-07-10T05:28:12.197Z,4.97
2018-07-10T05:30:42.115Z,5.93
2018-07-10T05:33:11.797Z,6.33
2018-07-10T05:35:40.016Z,5.87
2018-07-10T05:38:08.253Z,4.77
2018-07-10T05:40:36.448Z,5.23
2018-07-10T05:43:09.806Z,5.07
2018-07-10T05:45:39.320Z,5.27
2018-07-10T05:48:07.759Z,5.20
2018-07-10T05:50:36.677Z,5.30
2018-07-10T05:53:07.017Z,5.33
2018-07-10T05:55:35.226Z,6.20
2018-07-10T05:58:03.433Z,6.00
2018-07-10T06:00:31.894Z,6.40
2018-07-10T06:03:00.115Z,5.30
2018-07-10T06:05:28.970Z,4.83
2018-07-10T06:07:58.012Z,5.17
2018-07-10T06:10:26.229Z,4.67
2018-07-10T06:12:55.385Z,4.57
2018-07-10T06:15:23.588Z,5.20
2018-07-10T06:17:51.564Z,5.93
2018-07-10T06:20:19.874Z,4.73
2018-07-10T06:22:48.622Z,5.40
2018-07-10T06:25:16.826Z,5.60
2018-07-10T06:28:24.018Z,6.50
2018-07-10T06:30:52.241Z,8.17
2018-07-10T06:33:21.332Z,5.00
2018-07-10T06:36:32.258Z,5.03
2018-07-10T06:39:09.023Z,5.83
2018-07-10T06:41:40.172Z,5.53
2018-07-10T06:44:08.408Z,5.33
2018-07-10T06:46:39.897Z,4.30
2018-07-10T06:49:40.222Z,6.13
2018-07-10T06:52:16.274Z,5.10
2018-07-10T06:54:52.433Z,5.27
2018-07-10T06:57:25.289Z,4.80
2018-07-10T06:59:54.002Z,4.60
2018-07-10T07:02:22.209Z,4.87
2018-07-10T07:04:50.429Z,5.00
2018-07-10T07:07:18.642Z,4.87
2018-07-10T07:09:46.956Z,5.70
2018-07-10T07:12:15.991Z,5.30
2018-07-10T07:14:44.303Z,5.67
2018-07-10T07:17:12.520Z,5.13
2018-07-10T07:19:40.833Z,5.23
2018-07-10T07:22:08.794Z,4.73
2018-07-10T07:24:37.051Z,5.00
2018-07-10T07:27:05.307Z,4.30
2018-07-10T07:29:33.516Z,6.67
2018-07-10T07:32:01.732Z,4.43
2018-07-10T07:34:29.927Z,4.53
2018-07-10T07:36:58.129Z,4.27
2018-07-10T07:39:26.341Z,4.50
2018-07-10T07:41:54.555Z,3.93
2018-07-10T07:44:22.805Z,4.30
2018-07-10T07:46:51.092Z,3.53
2018-07-10T07:49:19.281Z,3.83
2018-07-10T07:51:47.553Z,3.93
2018-07-10T07:54:15.793Z,4.20
2018-07-10T07:56:43.993Z,3.90
2018-07-10T07:59:12.188Z,4.07
2018-07-10T08:01:40.492Z,4.80
2018-07-10T08:04:08.737Z,5.13
2018-07-10T08:06:36.953Z,4.17
2018-07-10T08:09:06.493Z,3.67
2018-07-10T08:11:34.833Z,4.33
2018-07-10T08:14:03.897Z,3.50
2018-07-10T08:16:32.138Z,4.00
2018-07-10T08:19:00.992Z,3.70
2018-07-10T08:21:29.276Z,4.60
2018-07-10T08:23:57.518Z,3.83
2018-07-10T08:26:25.730Z,3.97
2018-07-10T08:28:53.934Z,4.30
2018-07-10T08:31:22.197Z,3.77
2018-07-10T08:33:50.527Z,3.60
2018-07-10T08:36:18.633Z,3.87
2018-07-10T08:38:46.877Z,4.63
2018-07-10T08:41:21.597Z,4.27
2018-07-10T08:43:50.166Z,4.07
2018-07-10T08:46:22.211Z,3.87
2018-07-10T08:48:50.411Z,3.60
2018-07-10T08:51:18.641Z,4.43
2018-07-10T08:53:47.223Z,3.80
2018-07-10T08:56:15.455Z,3.50
2018-07-10T08:58:43.668Z,3.57
2018-07-10T09:01:11.891Z,3.83
2018-07-10T09:03:40.160Z,3.90
2018-07-10T09:06:08.458Z,3.87
2018-07-10T09:08:36.689Z,4.20
2018-07-10T09:11:04.902Z,3.90
2018-07-10T09:13:33.099Z,4.53
2018-07-10T09:16:01.294Z,3.70
2018-07-10T09:18:29.925Z,4.30
2018-07-10T09:20:58.122Z,4.37
2018-07-10T09:23:26.305Z,3.37
2018-07-10T09:25:57.125Z,3.50
2018-07-10T09:28:26.193Z,3.67
2018-07-10T09:30:54.397Z,3.77
2018-07-10T09:33:22.631Z,3.50
2018-07-10T09:35:50.797Z,4.07
2018-07-10T09:38:19.029Z,3.90
2018-07-10T09:40:47.309Z,3.47
2018-07-10T09:43:15.513Z,3.40
2018-07-10T09:45:43.701Z,3.40
2018-07-10T09:48:11.921Z,3.40
2018-07-10T09:50:40.184Z,2.97
2018-07-10T09:53:08.395Z,3.40
2018-07-10T09:55:36.589Z,3.33
2018-07-10T09:58:04.792Z,3.37
2018-07-10T10:00:39.176Z,3.20
2018-07-10T10:03:07.420Z,3.27
2018-07-10T10:05:38.254Z,3.47
2018-07-10T10:08:06.476Z,2.90
2018-07-10T10:10:34.745Z,3.00
2018-07-10T10:13:02.936Z,3.10
2018-07-10T10:15:33.002Z,3.07
2018-07-10T10:18:02.302Z,3.03
2018-07-10T10:20:30.500Z,3.33
2018-07-10T10:23:01.176Z,3.50
2018-07-10T10:25:30.851Z,3.20
2018-07-10T10:27:59.798Z,3.20
2018-07-10T10:30:28.082Z,3.50
2018-07-10T10:32:56.277Z,3.17
2018-07-10T10:35:24.475Z,3.20
2018-07-10T10:37:52.659Z,3.20
2018-07-10T10:40:21.009Z,3.03
2018-07-10T10:42:49.573Z,3.00
2018-07-10T10:45:18.311Z,2.80
2018-07-10T10:47:46.525Z,5.23
2018-07-10T10:50:14.737Z,2.90
2018-07-10T10:52:43.145Z,2.73
2018-07-10T10:55:11.344Z,7.83
2018-07-10T10:57:40.159Z,2.83
2018-07-10T11:00:08.383Z,4.30
2018-07-10T11:02:36.905Z,3.80
2018-07-10T11:05:05.085Z,3.60
2018-07-10T11:07:34.229Z,3.13
2018-07-10T11:10:02.495Z,3.20
2018-07-10T11:12:31.456Z,3.50
2018-07-10T11:14:59.945Z,3.40
2018-07-10T11:17:31.418Z,2.60
2018-07-10T11:20:10.723Z,2.77
2018-07-10T11:22:45.145Z,3.13
2018-07-10T11:25:13.431Z,3.10
2018-07-10T11:27:52.117Z,2.60
2018-07-10T11:30:20.360Z,2.90
2018-07-10T11:32:48.613Z,2.53
2018-07-10T11:35:16.861Z,3.23
2018-07-10T11:37:45.075Z,2.70
2018-07-10T11:40:13.974Z,2.90
2018-07-10T11:42:42.667Z,2.50
2018-07-10T11:45:10.941Z,3.10
2018-07-10T11:47:39.205Z,3.70
2018-07-10T11:50:07.455Z,3.30
2018-07-10T11:52:35.784Z,3.10
2018-07-10T11:55:04.046Z,3.17
2018-07-10T11:57:32.286Z,3.70
2018-07-10T12:00:00.556Z,3.30
2018-07-10T12:02:38.206Z,3.50
2018-07-10T12:05:06.579Z,3.20
2018-07-10T12:07:36.331Z,7.93
2018-07-10T12:10:16.253Z,5.40
2018-07-10T12:12:45.343Z,3.67
2018-07-10T12:15:13.814Z,3.00
2018-07-10T12:17:42.044Z,4.37
2018-07-10T12:20:11.502Z,4.33
2018-07-10T12:22:40.206Z,4.70
2018-07-10T12:25:09.189Z,4.73
2018-07-10T12:27:37.431Z,4.23
2018-07-10T12:30:07.364Z,3.07
2018-07-10T12:32:36.799Z,2.90
2018-07-10T12:35:05.970Z,3.07
2018-07-10T12:37:35.237Z,3.30
2018-07-10T12:40:03.461Z,3.80
2018-07-10T12:42:31.780Z,3.10
2018-07-10T12:45:00.035Z,3.00
2018-07-10T12:47:28.433Z,2.90
2018-07-10T12:49:56.717Z,3.27
2018-07-10T12:52:25.552Z,2.90
2018-07-10T12:54:54.926Z,3.17
2018-07-10T12:57:23.142Z,3.27
2018-07-10T12:59:51.631Z,3.10
2018-07-10T13:02:20.235Z,2.43
2018-07-10T13:04:48.555Z,3.20
2018-07-10T13:07:16.814Z,2.67
2018-07-10T13:09:45.097Z,2.97
2018-07-10T13:12:13.360Z,3.13
2018-07-10T13:14:41.623Z,2.87
2018-07-10T13:17:09.932Z,3.07
2018-07-10T13:19:38.244Z,3.13
2018-07-10T13:22:06.613Z,2.70
2018-07-10T13:24:35.170Z,2.53
2018-07-10T13:27:03.426Z,2.70
2018-07-10T13:29:31.946Z,2.93
2018-07-10T13:32:00.189Z,3.03
2018-07-10T13:34:28.417Z,3.27
2018-07-10T13:36:56.653Z,3.40
2018-07-10T13:39:24.650Z,3.67
2018-07-10T13:41:52.895Z,3.53
2018-07-10T13:44:21.198Z,3.10
2018-07-10T13:46:49.488Z,3.13
2018-07-10T13:49:17.743Z,3.10
2018-07-10T13:51:46.038Z,3.40
2018-07-10T13:54:14.317Z,3.20
2018-07-10T13:56:42.540Z,3.30
2018-07-10T13:59:10.807Z,3.40
2018-07-10T14:01:40.391Z,3.43
2018-07-10T14:04:08.691Z,3.13
2018-07-10T14:06:36.898Z,3.20
2018-07-10T14:09:05.218Z,3.10
2018-07-10T14:11:33.748Z,2.73
2018-07-10T14:14:02.002Z,3.83
2018-07-10T14:16:30.259Z,3.37
2018-07-10T14:18:59.757Z,3.20
2018-07-10T14:21:28.810Z,3.13
2018-07-10T14:23:57.044Z,3.57
2018-07-10T14:26:25.238Z,3.30
2018-07-10T14:28:53.433Z,3.17
2018-07-10T14:31:21.746Z,3.43
2018-07-10T14:33:49.933Z,3.10
2018-07-10T14:36:18.137Z,3.10
2018-07-10T14:38:46.341Z,3.20
2018-07-10T14:41:15.226Z,3.80
2018-07-10T14:43:44.656Z,5.20
2018-07-10T14:46:15.277Z,3.80
2018-07-10T14:48:50.129Z,4.00
2018-07-10T14:51:21.896Z,5.23
2018-07-10T14:53:50.141Z,4.70
2018-07-10T14:56:18.421Z,5.30
2018-07-10T14:58:46.921Z,5.00
2018-07-10T15:01:15.161Z,6.40
2018-07-10T15:03:43.385Z,6.53
2018-07-10T15:06:11.576Z,6.83
2018-07-10T15:08:39.795Z,6.80
2018-07-10T15:11:07.993Z,6.17
2018-07-10T15:13:47.627Z,6.90
2018-07-10T15:16:15.853Z,6.80
2018-07-10T15:18:45.797Z,6.80
2018-07-10T15:21:14.472Z,6.70
2018-07-10T15:23:42.697Z,7.30
2018-07-10T15:26:10.896Z,7.23
2018-07-10T15:28:39.120Z,7.27
2018-07-10T15:31:07.452Z,7.50
2018-07-10T15:33:35.670Z,7.40
2018-07-10T15:36:03.884Z,8.70
2018-07-10T15:38:32.237Z,8.03
2018-07-10T15:41:00.451Z,8.90
2018-07-10T15:43:28.637Z,8.33
2018-07-10T15:45:57.201Z,9.40
2018-07-10T15:48:25.885Z,8.60
2018-07-10T15:50:54.237Z,8.50
2018-07-10T15:53:22.466Z,8.47
2018-07-10T15:55:50.715Z,9.47
2018-07-10T15:58:18.940Z,8.37
2018-07-10T16:00:47.197Z,7.83
2018-07-10T16:03:15.489Z,8.57
2018-07-10T16:05:44.392Z,8.17
2018-07-10T16:08:13.966Z,8.77
2018-07-10T16:10:43.451Z,7.90
2018-07-10T16:13:11.726Z,7.80
2018-07-10T16:15:39.946Z,8.23
2018-07-10T16:18:08.205Z,8.60
2018-07-10T16:20:38.400Z,7.60
2018-07-10T16:23:09.560Z,7.37
2018-07-10T16:25:38.072Z,7.80
2018-07-10T16:28:16.871Z,8.10
2018-07-10T16:30:48.477Z,8.77
2018-07-10T16:33:27.456Z,8.27
2018-07-10T16:35:55.665Z,9.03
2018-07-10T16:38:24.029Z,10.07
2018-07-10T16:40:52.377Z,9.07
2018-07-10T16:43:25.985Z,9.20
2018-07-10T16:45:54.571Z,10.20
2018-07-10T16:48:34.324Z,10.53
2018-07-10T16:51:12.621Z,10.03
2018-07-10T16:53:41.623Z,10.43
2018-07-10T16:56:09.856Z,9.57
2018-07-10T16:58:39.696Z,10.40
2018-07-10T17:01:08.902Z,10.97
2018-07-10T17:03:37.592Z,12.73
2018-07-10T17:06:05.842Z,13.07
2018-07-10T17:08:34.037Z,12.33
2018-07-10T17:11:02.307Z,13.10
2018-07-10T17:13:30.489Z,12.97
2018-07-10T17:15:58.692Z,14.60
2018-07-10T17:18:26.921Z,15.00
2018-07-10T17:20:55.162Z,15.17
2018-07-10T17:23:23.358Z,17.10
2018-07-10T17:25:51.549Z,17.57
2018-07-10T17:28:20.252Z,29.50
2018-07-10T17:30:48.436Z,23.93
2018-07-10T17:33:16.629Z,34.03
2018-07-10T17:35:44.809Z,19.90
2018-07-10T17:38:12.992Z,19.23
2018-07-10T17:40:41.177Z,19.43
2018-07-10T17:43:09.368Z,19.07
2018-07-10T17:45:37.561Z,18.90
2018-07-10T17:48:05.753Z,18.47
2018-07-10T17:50:33.702Z,17.23
2018-07-10T17:53:01.927Z,16.80
2018-07-10T17:55:30.157Z,17.23
2018-07-10T17:58:03.085Z,17.27
2018-07-10T18:00:31.309Z,17.27
2018-07-10T18:02:59.505Z,17.67
2018-07-10T18:05:27.721Z,17.23
2018-07-10T18:07:55.916Z,20.60
2018-07-10T18:10:24.288Z,19.50
2018-07-10T18:12:52.520Z,18.03
2018-07-10T18:15:20.715Z,18.37
2018-07-10T18:17:48.950Z,16.50
2018-07-10T18:20:17.156Z,18.50
2018-07-10T18:22:45.417Z,18.37
2018-07-10T18:25:13.562Z,17.30
2018-07-10T18:27:41.766Z,17.97
2018-07-10T18:30:10.114Z,16.50
2018-07-10T18:32:38.322Z,17.10
2018-07-10T18:35:06.529Z,18.80
2018-07-10T18:37:34.797Z,16.20
2018-07-10T18:40:03.048Z,16.80
2018-07-10T18:42:31.345Z,17.27
2018-07-10T18:44:59.505Z,16.80
2018-07-10T18:47:27.495Z,17.83
2018-07-10T18:49:56.387Z,17.53
2018-07-10T18:52:29.357Z,17.40
2018-07-10T18:54:59.305Z,16.13
2018-07-10T18:57:49.871Z,17.47
2018-07-10T19:00:25.631Z,16.40
2018-07-10T19:03:06.577Z,17.43
2018-07-10T19:05:40.394Z,17.27
2018-07-10T19:08:08.641Z,18.27
2018-07-10T19:10:37.540Z,18.87
2018-07-10T19:13:06.210Z,20.13
2018-07-10T19:15:34.559Z,18.13
2018-07-10T19:18:02.697Z,16.70
2018-07-10T19:20:31.244Z,17.17
2018-07-10T19:23:03.978Z,16.63
2018-07-10T19:25:33.474Z,17.53
2018-07-10T19:28:01.690Z,19.40
2018-07-10T19:30:42.168Z,18.03
2018-07-10T19:33:10.363Z,17.77
2018-07-10T19:35:38.517Z,17.60
2018-07-10T19:38:06.738Z,16.90
2018-07-10T19:40:35.877Z,16.80
2018-07-10T19:43:04.131Z,19.00
2018-07-10T19:45:32.337Z,18.37
2018-07-10T19:48:00.661Z,17.33
2018-07-10T19:50:33.357Z,19.17
2018-07-10T19:53:01.596Z,17.93
2018-07-10T19:55:29.789Z,18.23
2018-07-10T19:58:06.466Z,19.37
2018-07-10T20:00:41.324Z,18.17
2018-07-10T20:03:09.512Z,18.00
2018-07-10T20:05:39.201Z,17.57
2018-07-10T20:08:13.192Z,19.42
2018-07-10T20:10:53.476Z,20.63
2018-07-10T20:13:40.315Z,19.87
2018-07-10T20:16:11.012Z,19.13
2018-07-10T20:18:48.165Z,18.70
2018-07-10T20:21:22.073Z,18.80
2018-07-10T20:23:57.059Z,19.00
2018-07-10T20:26:30.461Z,19.33
2018-07-10T20:29:11.654Z,19.20
2018-07-10T20:31:47.472Z,17.97
2018-07-10T20:35:35.482Z,19.07
2018-07-10T20:38:03.731Z,18.73
2018-07-10T20:40:34.830Z,17.93
2018-07-10T20:43:04.742Z,18.17
2018-07-10T20:45:33.111Z,17.73
2018-07-10T20:48:01.269Z,18.47
2018-07-10T20:50:35.169Z,17.93
2018-07-10T20:53:09.536Z,18.27
2018-07-10T20:55:45.319Z,17.60
2018-07-10T20:58:17.682Z,18.17
2018-07-10T21:00:55.595Z,18.17
2018-07-10T21:03:40.161Z,17.60
2018-07-10T21:06:17.673Z,18.17
2018-07-10T21:09:09.058Z,25.70
2018-07-10T21:11:47.745Z,23.37
2018-07-10T21:14:19.730Z,25.60
2018-07-10T21:16:55.045Z,22.03
2018-07-10T21:19:37.091Z,25.47
2018-07-10T21:22:09.906Z,19.50
2018-07-10T21:25:45.931Z,18.37
2018-07-10T21:28:29.171Z,18.30
2018-07-10T21:32:01.858Z,18.07
2018-07-10T21:34:43.665Z,17.03
2018-07-10T21:37:54.011Z,21.27
2018-07-10T21:40:31.490Z,17.73
2018-07-10T21:43:15.341Z,17.40
2018-07-10T21:45:57.137Z,17.53
2018-07-10T21:48:40.278Z,18.30
2018-07-10T21:51:08.478Z,17.37
2018-07-10T21:53:36.668Z,17.67
2018-07-10T21:56:05.032Z,17.13
2018-07-10T21:58:33.945Z,18.53
2018-07-10T22:01:41.382Z,18.77
2018-07-10T22:04:10.452Z,17.67
2018-07-10T22:06:39.564Z,17.80
2018-07-10T22:09:08.049Z,18.37
2018-07-10T22:11:37.785Z,18.80
2018-07-10T22:14:06.298Z,17.93
2018-07-10T22:16:34.511Z,18.13
2018-07-10T22:19:02.720Z,16.93
2018-07-10T22:21:31.298Z,18.60
2018-07-10T22:23:59.498Z,18.33
2018-07-10T22:26:27.693Z,16.70
2018-07-10T22:28:57.150Z,16.97
2018-07-10T22:31:31.638Z,18.10
2018-07-10T22:33:59.863Z,18.90
2018-07-10T22:36:28.208Z,18.33
2018-07-10T22:38:56.521Z,19.33
2018-07-10T22:41:25.179Z,18.83
2018-07-10T22:43:53.881Z,19.63
2018-07-10T22:46:24.072Z,18.03
2018-07-10T22:48:54.281Z,18.17
2018-07-10T22:51:22.503Z,17.60
2018-07-10T22:53:50.818Z,18.13
2018-07-10T22:56:19.026Z,18.37
2018-07-10T22:58:47.231Z,18.50
2018-07-10T23:01:15.468Z,16.97
2018-07-10T23:03:43.673Z,17.67
2018-07-10T23:06:11.890Z,17.20
2018-07-10T23:08:40.182Z,16.80
2018-07-10T23:11:12.581Z,17.43
2018-07-10T23:13:42.495Z,17.07
2018-07-10T23:16:10.762Z,16.93
2018-07-10T23:18:39.001Z,17.30
2018-07-10T23:21:07.205Z,19.80
2018-07-10T23:23:35.697Z,22.90
2018-07-10T23:26:03.905Z,31.67
2018-07-10T23:28:32.833Z,36.60
2018-07-10T23:31:02.383Z,31.73
2018-07-10T23:33:30.577Z,24.03
2018-07-10T23:36:01.118Z,20.97
2018-07-10T23:38:41.959Z,19.50
2018-07-10T23:41:15.765Z,18.57
2018-07-10T23:43:46.414Z,18.30
2018-07-10T23:46:19.207Z,18.00
2018-07-10T23:48:47.528Z,17.07
2018-07-10T23:51:15.721Z,17.40
2018-07-10T23:53:48.845Z,16.90
2018-07-10T23:56:17.633Z,17.13
2018-07-10T23:58:46.265Z,18.53
